Time,TemperatureF,DewpointF,PressureIn,WindDirection,WindDirectionDegrees,WindSpeedMPH,WindSpeedGustMPH,Humidity,HourlyPrecipIn,Conditions,Clouds,dailyrainin,SoftwareType,DateUTC
2013-02-06 00:02:00,29.0,27.0,30.02,WNW,292,7.0,11.0,91,0.00,,,0.04,,2013-02-06 05:02:00,
2013-02-06 00:12:00,29.0,27.0,30.02,WNW,292,7.0,11.0,91,0.00,,,0.04,,2013-02-06 05:12:00,
2013-02-06 00:22:00,29.0,27.0,30.02,WNW,292,7.0,11.0,91,0.00,,,0.04,,2013-02-06 05:22:00,
2013-02-06 00:32:00,29.0,27.0,30.03,West,279,5.0,9.0,91,0.00,,,0.04,,2013-02-06 05:32:00,
2013-02-06 00:42:00,29.0,27.0,30.03,West,279,5.0,9.0,91,0.00,,,0.04,,2013-02-06 05:42:00,
2013-02-06 00:53:00,29.0,26.0,30.04,West,281,7.0,11.0,90,0.00,,,0.04,,2013-02-06 05:53:00,
2013-02-06 01:01:00,29.0,26.0,30.04,West,281,7.0,11.0,90,0.00,,,0.04,,2013-02-06 06:01:00,
2013-02-06 01:11:00,29.0,26.0,30.04,West,281,7.0,11.0,90,0.00,,,0.04,,2013-02-06 06:11:00,
2013-02-06 01:22:00,29.0,25.0,30.06,NW,316,9.0,15.0,86,0.00,,,0.04,,2013-02-06 06:22:00,
2013-02-06 01:32:00,29.0,25.0,30.07,WNW,291,7.0,11.0,86,0.00,,,0.04,,2013-02-06 06:32:00,
2013-02-06 01:42:00,29.0,25.0,30.07,WNW,291,7.0,11.0,86,0.00,,,0.04,,2013-02-06 06:42:00,
2013-02-06 01:51:00,29.0,25.0,30.07,WNW,289,6.0,11.0,85,0.00,,,0.04,,2013-02-06 06:51:00,
2013-02-06 02:02:00,29.0,25.0,30.07,WNW,283,5.0,9.0,86,0.00,,,0.04,,2013-02-06 07:02:00,
2013-02-06 02:11:00,29.0,25.0,30.07,WNW,283,5.0,9.0,86,0.00,,,0.04,,2013-02-06 07:11:00,
2013-02-06 02:22:00,29.0,25.0,30.08,WNW,289,5.0,9.0,86,0.00,,,0.04,,2013-02-06 07:22:00,
2013-02-06 02:32:00,29.0,25.0,30.08,West,281,5.0,8.0,86,0.00,,,0.04,,2013-02-06 07:32:00,
2013-02-06 02:42:00,29.0,25.0,30.08,West,281,5.0,8.0,86,0.00,,,0.04,,2013-02-06 07:42:00,
2013-02-06 02:51:00,29.0,25.0,30.09,West,278,6.0,8.0,85,0.00,,,0.04,,2013-02-06 07:51:00,
2013-02-06 03:01:00,29.0,25.0,30.10,WNW,295,5.0,8.0,84,0.00,,,0.04,,2013-02-06 08:01:00,
2013-02-06 03:11:00,29.0,25.0,30.10,WNW,295,5.0,8.0,84,0.00,,,0.04,,2013-02-06 08:11:00,
2013-02-06 03:21:00,29.0,25.0,30.11,WNW,287,4.0,8.0,84,0.00,,,0.04,,2013-02-06 08:21:00,
2013-02-06 03:32:00,29.0,25.0,30.12,WNW,303,4.0,9.0,83,0.00,,,0.04,,2013-02-06 08:32:00,
2013-02-06 03:42:00,29.0,25.0,30.12,WNW,303,4.0,9.0,83,0.00,,,0.04,,2013-02-06 08:42:00,
2013-02-06 03:53:00,29.0,25.0,30.13,WNW,296,3.0,5.0,84,0.00,,,0.04,,2013-02-06 08:53:00,
2013-02-06 04:02:00,28.0,24.0,30.13,WNW,292,3.0,5.0,84,0.00,,,0.04,,2013-02-06 09:02:00,
2013-02-06 04:11:00,28.0,24.0,30.13,WNW,292,3.0,5.0,84,0.00,,,0.04,,2013-02-06 09:11:00,
2013-02-06 04:22:00,28.0,24.0,30.13,NW,315,1.0,4.0,85,0.00,,,0.04,,2013-02-06 09:22:00,
2013-02-06 04:32:00,28.0,24.0,30.13,NW,323,1.0,4.0,85,0.00,,,0.04,,2013-02-06 09:32:00,
2013-02-06 04:42:00,28.0,24.0,30.13,NW,323,1.0,4.0,85,0.00,,,0.04,,2013-02-06 09:42:00,
2013-02-06 04:52:00,28.0,24.0,30.14,NNW,341,2.0,8.0,83,0.00,,,0.04,,2013-02-06 09:52:00,
2013-02-06 05:01:00,28.0,23.0,30.15,NNW,340,4.0,10.0,82,0.00,,,0.04,,2013-02-06 10:01:00,
2013-02-06 05:11:00,28.0,23.0,30.15,NNW,340,4.0,10.0,82,0.00,,,0.04,,2013-02-06 10:11:00,
2013-02-06 05:22:00,27.0,23.0,30.15,NNW,340,1.0,5.0,83,0.00,,,0.04,,2013-02-06 10:22:00,
2013-02-06 05:32:00,27.0,23.0,30.16,NNE,20,3.0,6.0,83,0.00,,,0.04,,2013-02-06 10:32:00,
2013-02-06 05:42:00,27.0,23.0,30.16,NNE,20,3.0,6.0,83,0.00,,,0.04,,2013-02-06 10:42:00,
2013-02-06 05:52:00,26.0,22.0,30.16,NE,38,2.0,5.0,84,0.00,,,0.04,,2013-02-06 10:52:00,
2013-02-06 06:02:00,26.0,22.0,30.18,North,351,3.0,6.0,84,0.00,,,0.04,,2013-02-06 11:02:00,
2013-02-06 06:11:00,26.0,22.0,30.18,North,351,3.0,6.0,84,0.00,,,0.04,,2013-02-06 11:11:00,
2013-02-06 06:22:00,26.0,21.0,30.19,North,5,0.0,4.0,81,0.00,,,0.04,,2013-02-06 11:22:00,
2013-02-06 06:32:00,25.0,20.0,30.20,North,5,0.0,3.0,82,0.00,,,0.04,,2013-02-06 11:32:00,
2013-02-06 06:42:00,25.0,20.0,30.20,North,5,0.0,3.0,82,0.00,,,0.04,,2013-02-06 11:42:00,
2013-02-06 06:52:00,25.0,21.0,30.21,North,5,0.0,0.0,83,0.00,,,0.04,,2013-02-06 11:52:00,
2013-02-06 07:02:00,25.0,21.0,30.22,North,5,0.0,0.0,84,0.00,,,0.04,,2013-02-06 12:02:00,
2013-02-06 07:12:00,25.0,21.0,30.22,North,5,0.0,0.0,84,0.00,,,0.04,,2013-02-06 12:12:00,
2013-02-06 07:22:00,24.0,20.0,30.22,NNE,14,0.0,2.0,85,0.00,,,0.04,,2013-02-06 12:22:00,
2013-02-06 07:32:00,24.0,20.0,30.23,NNE,17,0.0,2.0,83,0.00,,,0.04,,2013-02-06 12:32:00,
2013-02-06 07:42:00,24.0,20.0,30.23,NNE,17,0.0,2.0,83,0.00,,,0.04,,2013-02-06 12:42:00,
2013-02-06 07:52:00,22.0,18.0,30.24,NNE,22,0.0,0.0,85,0.00,,,0.04,,2013-02-06 12:52:00,
2013-02-06 08:02:00,21.0,17.0,30.24,NNE,22,0.0,0.0,84,0.00,,,0.04,,2013-02-06 13:02:00,
2013-02-06 08:12:00,21.0,17.0,30.24,NNE,22,0.0,0.0,84,0.00,,,0.04,,2013-02-06 13:12:00,
2013-02-06 08:22:00,20.0,16.0,30.25,NNE,22,0.0,0.0,86,0.00,,,0.04,,2013-02-06 13:22:00,
2013-02-06 08:32:00,20.0,16.0,30.26,NNE,22,0.0,1.0,86,0.00,,,0.04,,2013-02-06 13:32:00,
2013-02-06 08:42:00,20.0,16.0,30.26,NNE,22,0.0,1.0,86,0.00,,,0.04,,2013-02-06 13:42:00,
2013-02-06 08:52:00,19.0,16.0,30.26,NNE,22,0.0,0.0,87,0.00,,,0.04,,2013-02-06 13:52:00,
2013-02-06 09:02:00,18.0,15.0,30.26,NNW,336,0.0,3.0,87,0.00,,,0.04,,2013-02-06 14:02:00,
2013-02-06 09:11:00,18.0,15.0,30.26,NNW,336,0.0,3.0,87,0.00,,,0.04,,2013-02-06 14:11:00,
2013-02-06 09:22:00,20.0,17.0,30.26,NNW,336,0.0,0.0,87,0.00,,,0.04,,2013-02-06 14:22:00,
2013-02-06 09:32:00,22.0,18.0,30.27,NNW,336,0.0,0.0,84,0.00,,,0.04,,2013-02-06 14:32:00,
2013-02-06 09:42:00,22.0,18.0,30.27,NNW,336,0.0,0.0,84,0.00,,,0.04,,2013-02-06 14:42:00,
2013-02-06 09:52:00,22.0,17.0,30.26,NNW,329,0.0,2.0,82,0.01,,,0.05,,2013-02-06 14:52:00,
2013-02-06 10:02:00,23.0,18.0,30.27,NW,325,0.0,1.0,81,0.01,,,0.05,,2013-02-06 15:02:00,
2013-02-06 10:11:00,23.0,18.0,30.27,NW,325,0.0,1.0,81,0.01,,,0.05,,2013-02-06 15:11:00,
2013-02-06 10:21:00,25.0,20.0,30.27,NW,325,0.0,1.0,80,0.01,,,0.05,,2013-02-06 15:21:00,
2013-02-06 10:32:00,26.0,19.0,30.27,SE,126,2.0,5.0,75,0.01,,,0.05,,2013-02-06 15:32:00,
2013-02-06 10:42:00,26.0,19.0,30.27,SE,126,2.0,5.0,75,0.01,,,0.05,,2013-02-06 15:42:00,
2013-02-06 10:52:00,26.0,19.0,30.27,SE,133,3.0,6.0,74,0.00,,,0.05,,2013-02-06 15:52:00,
2013-02-06 11:01:00,26.0,19.0,30.28,SE,137,2.0,6.0,73,0.00,,,0.05,,2013-02-06 16:01:00,
2013-02-06 11:11:00,26.0,19.0,30.28,SE,137,2.0,6.0,73,0.00,,,0.05,,2013-02-06 16:11:00,
2013-02-06 11:22:00,26.0,18.0,30.29,SE,125,2.0,7.0,72,0.00,,,0.05,,2013-02-06 16:22:00,
2013-02-06 11:32:00,27.0,19.0,30.29,SSE,161,0.0,4.0,71,0.01,,,0.06,,2013-02-06 16:32:00,
2013-02-06 11:42:00,27.0,19.0,30.29,SSE,161,0.0,4.0,71,0.01,,,0.06,,2013-02-06 16:42:00,
2013-02-06 11:52:00,27.0,18.0,30.29,SSE,168,1.0,5.0,68,0.01,,,0.06,,2013-02-06 16:52:00,
2013-02-06 12:02:00,28.0,18.0,30.30,SSE,166,2.0,5.0,66,0.01,,,0.06,,2013-02-06 17:02:00,
2013-02-06 12:12:00,28.0,18.0,30.30,SSE,166,2.0,5.0,66,0.01,,,0.06,,2013-02-06 17:12:00,
2013-02-06 12:22:00,28.0,18.0,30.30,SSE,166,2.0,5.0,66,0.01,,,0.06,,2013-02-06 17:22:00,
2013-02-06 12:32:00,29.0,19.0,30.30,SSE,161,1.0,5.0,65,0.01,,,0.06,,2013-02-06 17:32:00,
2013-02-06 12:42:00,29.0,19.0,30.30,SSE,161,1.0,5.0,65,0.01,,,0.06,,2013-02-06 17:42:00,
2013-02-06 12:52:00,29.0,19.0,30.29,SE,144,2.0,4.0,66,0.01,,,0.06,,2013-02-06 17:52:00,
2013-02-06 13:02:00,28.0,18.0,30.29,SSE,164,2.0,5.0,65,0.01,,,0.06,,2013-02-06 18:02:00,
2013-02-06 13:12:00,28.0,18.0,30.29,SSE,164,2.0,5.0,65,0.01,,,0.06,,2013-02-06 18:12:00,
2013-02-06 13:23:00,28.0,18.0,30.29,SSE,164,2.0,5.0,65,0.01,,,0.06,,2013-02-06 18:23:00,
2013-02-06 13:33:00,28.0,18.0,30.28,ESE,117,4.0,8.0,66,0.00,,,0.04,,2013-02-06 18:33:00,
2013-02-06 13:42:00,28.0,18.0,30.28,ESE,117,4.0,8.0,66,0.00,,,0.04,,2013-02-06 18:42:00,
2013-02-06 13:52:00,28.0,19.0,30.28,ESE,117,3.0,7.0,69,0.00,,,0.04,,2013-02-06 18:52:00,
2013-02-06 14:02:00,28.0,18.0,30.28,SE,134,4.0,8.0,65,0.00,,,0.04,,2013-02-06 19:02:00,
2013-02-06 14:11:00,28.0,18.0,30.28,SE,134,4.0,8.0,65,0.00,,,0.04,,2013-02-06 19:11:00,
2013-02-06 14:22:00,28.0,18.0,30.28,SE,138,6.0,8.0,67,0.01,,,0.05,,2013-02-06 19:22:00,
2013-02-06 14:32:00,28.0,18.0,30.27,ESE,121,6.0,9.0,66,0.01,,,0.04,,2013-02-06 19:32:00,
2013-02-06 14:42:00,28.0,18.0,30.27,ESE,121,6.0,9.0,66,0.01,,,0.04,,2013-02-06 19:42:00,
2013-02-06 14:52:00,28.0,18.0,30.27,SE,138,5.0,9.0,65,0.01,,,0.04,,2013-02-06 19:52:00,
2013-02-06 15:01:00,28.0,18.0,30.27,SSE,148,5.0,8.0,65,0.01,,,0.04,,2013-02-06 20:01:00,
2013-02-06 15:11:00,28.0,18.0,30.27,SSE,148,5.0,8.0,65,0.01,,,0.04,,2013-02-06 20:11:00,
2013-02-06 15:21:00,28.0,17.0,30.29,SSE,153,5.0,8.0,63,0.00,,,0.04,,2013-02-06 20:21:00,
2013-02-06 15:32:00,28.0,18.0,30.29,SSE,154,5.0,7.0,66,0.00,,,0.04,,2013-02-06 20:32:00,
2013-02-06 15:42:00,28.0,18.0,30.29,SSE,154,5.0,7.0,66,0.00,,,0.04,,2013-02-06 20:42:00,
2013-02-06 15:52:00,28.0,18.0,30.28,SSE,151,5.0,9.0,65,0.00,,,0.04,,2013-02-06 20:52:00,
2013-02-06 16:02:00,28.0,18.0,30.27,SE,134,6.0,10.0,66,0.00,,,0.04,,2013-02-06 21:02:00,
2013-02-06 16:11:00,28.0,18.0,30.27,SE,134,6.0,10.0,66,0.00,,,0.04,,2013-02-06 21:11:00,
2013-02-06 16:21:00,28.0,18.0,30.29,SE,134,5.0,7.0,66,0.00,,,0.04,,2013-02-06 21:21:00,
2013-02-06 16:32:00,28.0,18.0,30.28,SE,129,4.0,7.0,67,0.00,,,0.04,,2013-02-06 21:32:00,
2013-02-06 16:42:00,28.0,18.0,30.28,SE,129,4.0,7.0,67,0.00,,,0.04,,2013-02-06 21:42:00,
2013-02-06 16:51:00,28.0,19.0,30.29,SE,128,3.0,6.0,68,0.00,,,0.04,,2013-02-06 21:51:00,
2013-02-06 17:01:00,27.0,18.0,30.29,SE,130,4.0,7.0,68,0.00,,,0.04,,2013-02-06 22:01:00,
2013-02-06 17:11:00,27.0,18.0,30.29,SE,130,4.0,7.0,68,0.00,,,0.04,,2013-02-06 22:11:00,
2013-02-06 17:22:00,27.0,19.0,30.29,SE,128,2.0,5.0,70,0.00,,,0.04,,2013-02-06 22:22:00,
2013-02-06 17:32:00,26.0,18.0,30.29,SE,124,2.0,4.0,71,0.00,,,0.04,,2013-02-06 22:32:00,
2013-02-06 17:42:00,26.0,18.0,30.29,SE,124,2.0,4.0,71,0.00,,,0.04,,2013-02-06 22:42:00,
2013-02-06 17:52:00,25.0,17.0,30.29,SE,126,3.0,4.0,72,0.00,,,0.04,,2013-02-06 22:52:00,
2013-02-06 18:01:00,24.0,17.0,30.28,SE,130,3.0,5.0,74,0.00,,,0.04,,2013-02-06 23:01:00,
2013-02-06 18:11:00,24.0,17.0,30.28,SE,130,3.0,5.0,74,0.00,,,0.04,,2013-02-06 23:11:00,
2013-02-06 18:21:00,21.0,14.0,30.28,SE,130,0.0,3.0,74,0.00,,,0.04,,2013-02-06 23:21:00,
2013-02-06 18:32:00,18.0,12.0,30.29,ESE,120,2.0,3.0,78,0.00,,,0.04,,2013-02-06 23:32:00,
2013-02-06 18:52:00,20.0,15.0,30.27,SE,137,5.0,8.0,81,0.00,,,0.04,,2013-02-06 23:52:00,
2013-02-06 19:02:00,22.0,16.0,30.27,SE,129,5.0,8.0,76,0.00,,,0.04,,2013-02-07 00:02:00,
2013-02-06 19:11:00,22.0,16.0,30.27,SE,129,5.0,8.0,76,0.00,,,0.04,,2013-02-07 00:11:00,
2013-02-06 19:22:00,21.0,15.0,30.29,SE,133,0.0,5.0,77,0.00,,,0.04,,2013-02-07 00:22:00,
2013-02-06 19:32:00,20.0,14.0,30.29,SE,124,1.0,5.0,78,0.00,,,0.04,,2013-02-07 00:32:00,
2013-02-06 19:42:00,20.0,14.0,30.29,SE,124,1.0,5.0,78,0.00,,,0.04,,2013-02-07 00:42:00,
2013-02-06 19:52:00,18.0,13.0,30.29,East,101,1.0,3.0,82,0.00,,,0.04,,2013-02-07 00:52:00,
2013-02-06 20:01:00,18.0,14.0,30.29,East,101,0.0,1.0,85,0.00,,,0.04,,2013-02-07 01:01:00,
2013-02-06 20:11:00,18.0,14.0,30.29,East,101,0.0,1.0,85,0.00,,,0.04,,2013-02-07 01:11:00,
2013-02-06 20:21:00,19.0,15.0,30.28,ESE,105,2.0,4.0,84,0.00,,,0.04,,2013-02-07 01:21:00,
2013-02-06 20:32:00,19.0,15.0,30.28,ESE,105,2.0,4.0,84,0.00,,,0.04,,2013-02-07 01:32:00,
2013-02-06 20:42:00,19.0,15.0,30.28,ESE,105,2.0,4.0,84,0.00,,,0.04,,2013-02-07 01:42:00,
2013-02-06 20:52:00,21.0,17.0,30.28,SE,130,4.0,6.0,83,0.00,,,0.04,,2013-02-07 01:52:00,
2013-02-06 21:02:00,21.0,17.0,30.28,SE,130,4.0,6.0,83,0.00,,,0.04,,2013-02-07 02:02:00,
2013-02-06 21:12:00,21.0,17.0,30.28,SE,130,4.0,6.0,83,0.00,,,0.04,,2013-02-07 02:12:00,
2013-02-06 21:21:00,22.0,17.0,30.26,ESE,109,5.0,8.0,82,0.00,,,0.04,,2013-02-07 02:21:00,
2013-02-06 21:32:00,22.0,18.0,30.27,ESE,115,4.0,5.0,83,0.00,,,0.04,,2013-02-07 02:32:00,
2013-02-06 21:42:00,22.0,18.0,30.27,ESE,115,4.0,5.0,83,0.00,,,0.04,,2013-02-07 02:42:00,
2013-02-06 21:51:00,22.0,18.0,30.27,ESE,115,4.0,5.0,83,0.00,,,0.04,,2013-02-07 02:51:00,
2013-02-06 22:02:00,22.0,18.0,30.26,ESE,117,4.0,7.0,83,0.00,,,0.04,,2013-02-07 03:02:00,
2013-02-06 22:11:00,22.0,18.0,30.26,ESE,117,4.0,7.0,83,0.00,,,0.04,,2013-02-07 03:11:00,
2013-02-06 22:21:00,23.0,18.0,30.25,ESE,120,6.0,10.0,81,0.00,,,0.04,,2013-02-07 03:21:00,
2013-02-06 22:32:00,23.0,18.0,30.24,ESE,121,6.0,8.0,82,0.00,,,0.04,,2013-02-07 03:32:00,
2013-02-06 22:42:00,23.0,18.0,30.24,ESE,121,6.0,8.0,82,0.00,,,0.04,,2013-02-07 03:42:00,
2013-02-06 22:52:00,23.0,19.0,30.23,SE,128,6.0,8.0,83,0.00,,,0.04,,2013-02-07 03:52:00,
2013-02-06 23:01:00,23.0,18.0,30.23,SE,134,7.0,10.0,82,0.00,,,0.04,,2013-02-07 04:01:00,
2013-02-06 23:11:00,23.0,18.0,30.23,SE,134,7.0,10.0,82,0.00,,,0.04,,2013-02-07 04:11:00,
2013-02-06 23:22:00,24.0,19.0,30.23,SE,130,7.0,10.0,82,0.00,,,0.04,,2013-02-07 04:22:00,
2013-02-06 23:32:00,24.0,20.0,30.24,SE,132,2.0,7.0,83,0.00,,,0.04,,2013-02-07 04:32:00,
2013-02-06 23:42:00,24.0,20.0,30.24,SE,132,2.0,7.0,83,0.00,,,0.04,,2013-02-07 04:42:00,
2013-02-06 23:53:00,24.0,20.0,30.25,SE,125,0.0,2.0,83,0.00,,,0.04,,2013-02-07 04:53:00,